Alzada, Montana
Current Conditions -  °F | °C
As of 3:55 AM on Wednesday 26 Nov 2014 (Local Time) from KSPF Reporting Station
Unknown Precip Unknown Precip  
Wind Chill: 17°   Ceiling: 500
Heat Index: 23°   Visibility: 5mi
Dew Point: 23°   Wind: 5mph
Humidity: 100%   Direction: 280°W
Pressure: 30.15"   Gusts: NA
Location:  45.03°N, 104.42°W
Report Text: KSPF 261055Z AUTO 28004KT 5SM UP OVC005 M05/M05 A3015 RMK AO2
Loading
Personal Weather Stations






























Interactive Weather Map New forecast layout! Learn more

10-Day Weather Forecast

Advertisements
Track Severe Weather on mobile